createdAt,value
2022-09-21T00:01:32.744Z,20.10
2022-09-21T00:04:03.601Z,20.10
2022-09-21T00:06:32.800Z,20.00
2022-09-21T00:09:03.323Z,20.00
2022-09-21T00:11:32.890Z,20.00
2022-09-21T00:14:04.498Z,20.00
2022-09-21T00:16:33.232Z,20.00
2022-09-21T00:19:03.428Z,20.00
2022-09-21T00:21:31.918Z,20.00
2022-09-21T00:24:02.638Z,20.00
2022-09-21T00:26:31.465Z,20.00
2022-09-21T00:29:00.634Z,20.00
2022-09-21T00:31:31.135Z,20.00
2022-09-21T00:34:00.338Z,20.00
2022-09-21T00:36:30.609Z,19.90
2022-09-21T00:39:00.989Z,19.90
2022-09-21T00:41:29.893Z,19.90
2022-09-21T00:44:20.896Z,19.90
2022-09-21T00:46:50.703Z,19.80
2022-09-21T00:49:19.622Z,19.90
2022-09-21T00:51:51.249Z,19.90
2022-09-21T00:54:27.271Z,19.90
2022-09-21T00:56:56.308Z,19.90
2022-09-21T00:59:29.388Z,19.80
2022-09-21T01:01:59.494Z,19.80
2022-09-21T01:04:28.798Z,19.80
2022-09-21T01:07:00.546Z,19.80
2022-09-21T01:09:29.423Z,19.80
2022-09-21T01:12:04.783Z,19.80
2022-09-21T01:14:43.399Z,19.90
2022-09-21T01:17:16.452Z,19.90
2022-09-21T01:19:58.451Z,19.90
2022-09-21T01:22:34.957Z,19.90
2022-09-21T01:25:08.716Z,19.80
2022-09-21T01:27:46.143Z,19.80
2022-09-21T01:30:16.658Z,19.70
2022-09-21T01:32:47.873Z,19.60
2022-09-21T01:35:18.573Z,19.60
2022-09-21T01:37:49.791Z,19.60
2022-09-21T01:40:20.007Z,19.60
2022-09-21T01:42:49.984Z,19.60
2022-09-21T01:45:22.184Z,19.60
2022-09-21T01:47:51.406Z,19.60
2022-09-21T01:50:21.113Z,19.60
2022-09-21T01:52:52.531Z,19.60
2022-09-21T01:55:24.167Z,19.60
2022-09-21T01:57:56.450Z,19.60
2022-09-21T02:00:26.823Z,19.60
2022-09-21T02:02:58.529Z,19.60
2022-09-21T02:05:27.661Z,19.60
2022-09-21T02:07:56.351Z,19.60
2022-09-21T02:10:28.655Z,19.60
2022-09-21T02:12:58.597Z,19.50
2022-09-21T02:15:32.910Z,19.60
2022-09-21T02:18:05.741Z,19.50
2022-09-21T02:20:36.664Z,19.50
2022-09-21T02:23:07.838Z,19.50
2022-09-21T02:25:41.292Z,19.50
2022-09-21T02:28:13.172Z,19.50
2022-09-21T02:30:47.613Z,19.50
2022-09-21T02:33:21.004Z,19.50
2022-09-21T02:35:51.276Z,19.50
2022-09-21T02:38:26.521Z,19.40
2022-09-21T02:40:56.842Z,19.50
2022-09-21T02:43:27.804Z,19.50
2022-09-21T02:46:00.140Z,19.40
2022-09-21T02:48:31.004Z,19.30
2022-09-21T02:51:01.286Z,19.40
2022-09-21T02:53:31.765Z,19.40
2022-09-21T02:56:03.120Z,19.40
2022-09-21T02:58:32.630Z,19.30
2022-09-21T03:01:05.262Z,19.40
2022-09-21T03:03:33.631Z,19.30
2022-09-21T03:06:02.137Z,19.30
2022-09-21T03:08:31.142Z,19.30
2022-09-21T03:10:59.500Z,19.40
2022-09-21T03:13:27.910Z,19.50
2022-09-21T03:16:00.753Z,19.50
2022-09-21T03:18:30.699Z,19.50
2022-09-21T03:20:59.061Z,19.50
2022-09-21T03:23:27.531Z,19.50
2022-09-21T03:25:56.324Z,19.50
2022-09-21T03:28:25.060Z,19.40
2022-09-21T03:30:53.669Z,19.40
2022-09-21T03:33:22.254Z,19.40
2022-09-21T03:35:52.434Z,19.50
2022-09-21T03:38:21.683Z,19.50
2022-09-21T03:40:50.588Z,19.40
2022-09-21T03:43:19.253Z,19.40
2022-09-21T03:45:49.189Z,19.40
2022-09-21T03:48:17.546Z,19.40
2022-09-21T03:50:45.984Z,19.30
2022-09-21T03:53:16.252Z,19.30
2022-09-21T03:55:44.571Z,19.30
2022-09-21T03:58:12.976Z,19.20
2022-09-21T04:00:41.381Z,19.20
2022-09-21T04:03:09.912Z,19.10
2022-09-21T04:05:39.862Z,19.10
2022-09-21T04:08:09.841Z,19.10
2022-09-21T04:10:42.297Z,19.10
2022-09-21T04:13:10.740Z,19.20
2022-09-21T04:15:39.070Z,19.20
2022-09-21T04:18:08.250Z,19.10
2022-09-21T04:20:36.638Z,19.00
2022-09-21T04:23:05.160Z,18.90
2022-09-21T04:25:33.716Z,18.90
2022-09-21T04:28:03.613Z,19.00
2022-09-21T04:30:37.519Z,18.90
2022-09-21T04:33:06.463Z,18.90
2022-09-21T04:35:34.810Z,19.00
2022-09-21T04:38:03.404Z,19.10
2022-09-21T04:40:31.898Z,19.00
2022-09-21T04:43:00.412Z,19.00
2022-09-21T04:45:30.154Z,19.00
2022-09-21T04:47:58.576Z,19.00
2022-09-21T04:50:27.062Z,19.00
2022-09-21T04:52:55.460Z,19.10
2022-09-21T04:55:23.858Z,19.10
2022-09-21T04:57:52.272Z,19.10
2022-09-21T05:00:20.868Z,19.10
2022-09-21T05:02:51.765Z,19.10
2022-09-21T05:05:20.176Z,19.20
2022-09-21T05:07:48.598Z,19.10
2022-09-21T05:10:16.507Z,19.10
2022-09-21T05:12:44.847Z,19.00
2022-09-21T05:15:13.406Z,19.00
2022-09-21T05:17:42.159Z,19.00
2022-09-21T05:20:12.589Z,18.90
2022-09-21T05:22:41.047Z,18.90
2022-09-21T05:25:10.477Z,19.00
2022-09-21T05:27:38.832Z,19.00
2022-09-21T05:30:08.008Z,19.10
2022-09-21T05:32:42.841Z,19.20
2022-09-21T05:35:16.985Z,19.30
2022-09-21T05:37:49.166Z,19.30
2022-09-21T05:40:17.930Z,19.40
2022-09-21T05:42:46.605Z,19.40
2022-09-21T05:45:16.739Z,19.50
2022-09-21T05:47:50.268Z,19.50
2022-09-21T05:50:26.627Z,19.50
2022-09-21T05:53:01.561Z,19.50
2022-09-21T05:55:33.094Z,19.50
2022-09-21T05:58:06.511Z,19.40
2022-09-21T06:00:41.178Z,19.40
2022-09-21T06:03:23.988Z,19.50
2022-09-21T06:05:53.770Z,19.50
2022-09-21T06:08:22.191Z,19.60
2022-09-21T06:10:50.854Z,19.60
2022-09-21T06:13:19.234Z,19.60
2022-09-21T06:15:47.696Z,19.70
2022-09-21T06:18:18.131Z,19.80
2022-09-21T06:20:47.244Z,19.80
2022-09-21T06:23:17.510Z,19.90
2022-09-21T06:25:46.221Z,20.00
2022-09-21T06:28:14.993Z,20.10
2022-09-21T06:30:45.130Z,20.10
2022-09-21T06:33:20.252Z,20.20
2022-09-21T06:35:54.596Z,20.20
2022-09-21T06:38:25.522Z,20.20
2022-09-21T06:40:55.953Z,20.20
2022-09-21T06:43:24.773Z,20.30
2022-09-21T06:45:57.302Z,20.30
2022-09-21T06:48:27.002Z,20.30
2022-09-21T06:50:59.559Z,20.40
2022-09-21T06:53:31.068Z,20.40
2022-09-21T06:56:02.924Z,20.30
2022-09-21T06:58:34.268Z,20.30
2022-09-21T07:01:08.143Z,20.20
2022-09-21T07:03:37.650Z,20.20
2022-09-21T07:06:06.842Z,20.10
2022-09-21T07:11:27.476Z,20.20
2022-09-21T07:13:56.415Z,20.20
2022-09-21T07:16:25.192Z,20.40
2022-09-21T07:18:53.888Z,20.40
2022-09-21T07:21:23.025Z,20.50
2022-09-21T07:23:52.883Z,20.50
2022-09-21T07:26:22.717Z,20.60
2022-09-21T07:28:51.057Z,20.80
2022-09-21T07:31:19.757Z,21.10
2022-09-21T07:33:48.526Z,21.20
2022-09-21T07:36:17.897Z,21.40
2022-09-21T07:38:46.637Z,21.50
2022-09-21T07:41:16.715Z,21.50
2022-09-21T07:43:45.570Z,21.60
2022-09-21T07:46:16.201Z,21.60
2022-09-21T07:48:44.930Z,21.60
2022-09-21T07:51:15.009Z,21.70
2022-09-21T07:53:45.497Z,21.80
2022-09-21T07:56:17.620Z,21.90
2022-09-21T07:59:03.842Z,22.10
2022-09-21T08:01:32.305Z,22.40
2022-09-21T08:04:01.120Z,22.60
2022-09-21T08:06:30.543Z,22.70
2022-09-21T08:08:59.115Z,22.70
2022-09-21T08:11:30.289Z,22.70
2022-09-21T08:13:59.516Z,22.60
2022-09-21T08:16:29.165Z,22.80
2022-09-21T08:18:57.913Z,22.70
2022-09-21T08:21:26.717Z,22.70
2022-09-21T08:23:55.111Z,22.80
2022-09-21T08:26:24.739Z,22.80
2022-09-21T08:28:56.663Z,22.80
2022-09-21T08:31:25.280Z,22.90
2022-09-21T08:33:54.070Z,22.80
2022-09-21T08:36:22.504Z,22.80
2022-09-21T08:38:50.983Z,22.80
2022-09-21T08:41:21.276Z,22.90
2022-09-21T08:43:51.282Z,22.90
2022-09-21T08:46:22.338Z,22.90
2022-09-21T08:48:51.985Z,22.90
2022-09-21T08:51:23.315Z,22.70
2022-09-21T08:53:53.535Z,22.60
2022-09-21T08:56:23.205Z,22.60
2022-09-21T08:58:51.759Z,22.80
2022-09-21T09:01:33.876Z,22.80
2022-09-21T09:04:19.695Z,22.70
2022-09-21T09:06:51.187Z,22.70
2022-09-21T09:09:30.109Z,22.80
2022-09-21T09:12:08.707Z,22.70
2022-09-21T09:15:09.058Z,22.80
2022-09-21T09:17:45.570Z,22.80
2022-09-21T09:20:16.251Z,22.70
2022-09-21T09:22:47.588Z,22.70
2022-09-21T09:25:18.275Z,22.70
2022-09-21T09:27:48.004Z,22.70
2022-09-21T09:30:18.292Z,22.80
2022-09-21T09:32:50.389Z,22.70
2022-09-21T09:35:23.607Z,22.70
2022-09-21T09:37:53.274Z,22.50
2022-09-21T09:40:26.673Z,22.40
2022-09-21T09:43:04.827Z,22.40
2022-09-21T09:45:44.321Z,22.20
2022-09-21T09:48:43.879Z,22.30
2022-09-21T09:51:14.166Z,22.20
2022-09-21T09:53:42.940Z,22.20
2022-09-21T09:56:14.906Z,22.10
2022-09-21T09:58:48.106Z,22.10
2022-09-21T10:01:38.066Z,22.10
2022-09-21T10:04:10.179Z,22.10
2022-09-21T10:06:45.106Z,22.10
2022-09-21T10:09:25.573Z,22.20
2022-09-21T10:11:57.285Z,22.10
2022-09-21T10:14:29.610Z,22.20
2022-09-21T10:17:02.938Z,22.00
2022-09-21T10:19:33.272Z,22.00
2022-09-21T10:22:04.155Z,21.90
2022-09-21T10:24:34.989Z,21.90
2022-09-21T10:27:07.494Z,21.80
2022-09-21T10:29:44.466Z,21.80
2022-09-21T10:32:25.905Z,22.00
2022-09-21T10:35:21.515Z,21.90
2022-09-21T10:38:09.616Z,21.90
2022-09-21T10:40:39.532Z,22.00
2022-09-21T10:43:25.066Z,22.00
2022-09-21T10:45:56.607Z,22.00
2022-09-21T10:48:27.153Z,22.00
2022-09-21T10:50:58.133Z,22.10
2022-09-21T10:53:29.462Z,22.20
2022-09-21T10:56:15.661Z,22.10
2022-09-21T10:59:12.668Z,22.10
2022-09-21T11:01:46.875Z,22.00
2022-09-21T11:04:21.128Z,21.90
2022-09-21T11:06:52.755Z,21.90
2022-09-21T11:09:23.519Z,22.00
2022-09-21T11:11:54.934Z,21.90
2022-09-21T11:14:31.352Z,21.90
2022-09-21T11:17:04.905Z,21.90
2022-09-21T11:19:39.405Z,21.70
2022-09-21T11:22:28.591Z,21.50
2022-09-21T11:25:09.967Z,21.50
2022-09-21T11:27:41.681Z,21.50
2022-09-21T11:30:13.446Z,21.60
2022-09-21T11:33:02.371Z,21.80
2022-09-21T11:35:45.901Z,21.80
2022-09-21T11:38:33.645Z,21.60
2022-09-21T11:41:16.630Z,21.50
2022-09-21T11:44:00.681Z,21.40
2022-09-21T11:46:40.300Z,21.50
2022-09-21T11:49:27.911Z,21.60
2022-09-21T11:52:10.898Z,21.50
2022-09-21T11:55:01.609Z,21.50
2022-09-21T11:57:38.344Z,21.70
2022-09-21T12:00:15.831Z,21.60
2022-09-21T12:03:19.870Z,21.40
2022-09-21T12:06:02.962Z,21.40
2022-09-21T12:08:56.565Z,21.40
2022-09-21T12:11:36.886Z,21.40
2022-09-21T12:14:15.843Z,21.50
2022-09-21T12:16:54.882Z,21.60
2022-09-21T12:19:33.948Z,21.80
2022-09-21T12:22:09.148Z,21.70
2022-09-21T12:24:43.881Z,21.60
2022-09-21T12:27:22.738Z,21.70
2022-09-21T12:29:56.683Z,21.70
2022-09-21T12:32:32.324Z,21.30
2022-09-21T12:35:05.770Z,21.30
2022-09-21T12:37:39.499Z,21.20
2022-09-21T12:40:17.445Z,21.40
2022-09-21T12:42:52.048Z,21.50
2022-09-21T12:45:28.095Z,21.40
2022-09-21T12:48:01.959Z,21.40
2022-09-21T12:50:37.686Z,21.60
2022-09-21T12:53:06.922Z,21.40
2022-09-21T12:55:47.891Z,21.40
2022-09-21T12:58:41.355Z,21.30
2022-09-21T13:01:20.865Z,21.20
2022-09-21T13:04:02.077Z,21.30
2022-09-21T13:06:38.141Z,21.30
2022-09-21T13:09:09.989Z,21.30
2022-09-21T13:11:50.993Z,21.30
2022-09-21T13:14:21.059Z,21.20
2022-09-21T13:16:54.875Z,20.80
2022-09-21T13:19:24.417Z,20.80
2022-09-21T13:22:07.577Z,20.90
2022-09-21T13:24:35.984Z,20.70
2022-09-21T13:27:06.965Z,21.00
2022-09-21T13:29:37.301Z,21.00
2022-09-21T13:32:21.596Z,20.80
2022-09-21T13:34:51.080Z,20.90
2022-09-21T13:37:31.109Z,20.80
2022-09-21T13:40:14.630Z,20.70
2022-09-21T13:42:47.461Z,20.80
2022-09-21T13:46:04.760Z,20.60
2022-09-21T13:48:36.058Z,20.50
2022-09-21T13:51:10.212Z,20.60
2022-09-21T13:53:42.256Z,20.60
2022-09-21T13:56:20.709Z,20.50
2022-09-21T13:58:53.257Z,20.50
2022-09-21T14:01:45.912Z,20.60
2022-09-21T14:04:23.905Z,20.60
2022-09-21T14:06:54.862Z,20.60
2022-09-21T14:09:28.546Z,20.60
2022-09-21T14:11:59.032Z,20.30
2022-09-21T14:14:29.817Z,20.30
2022-09-21T14:16:59.417Z,20.20
2022-09-21T14:20:04.984Z,20.00
2022-09-21T14:22:42.767Z,20.10
2022-09-21T14:25:29.167Z,20.10
2022-09-21T14:28:13.132Z,20.10
2022-09-21T14:30:49.386Z,20.10
2022-09-21T14:33:27.412Z,20.20
2022-09-21T14:35:57.621Z,19.90
2022-09-21T14:38:30.676Z,20.00
2022-09-21T14:41:02.792Z,20.10
2022-09-21T14:43:35.418Z,19.90
2022-09-21T14:46:47.701Z,19.80
2022-09-21T14:49:47.251Z,20.00
2022-09-21T14:52:32.367Z,19.80
2022-09-21T14:55:15.889Z,20.00
2022-09-21T14:57:59.354Z,20.10
2022-09-21T15:00:39.717Z,20.00
2022-09-21T15:03:39.081Z,20.10
2022-09-21T15:06:37.704Z,20.20
2022-09-21T15:09:46.170Z,20.20
2022-09-21T15:12:20.842Z,19.80
2022-09-21T15:14:57.599Z,19.80
2022-09-21T15:17:29.971Z,19.90
2022-09-21T15:20:00.852Z,19.90
2022-09-21T15:22:31.983Z,19.80
2022-09-21T15:25:05.990Z,19.70
2022-09-21T15:27:36.287Z,19.60
2022-09-21T15:30:06.349Z,19.40
2022-09-21T15:32:37.530Z,19.40
2022-09-21T15:35:07.421Z,19.50
2022-09-21T15:37:36.888Z,19.50
2022-09-21T15:40:07.607Z,19.50
2022-09-21T15:42:43.868Z,19.30
2022-09-21T15:45:15.298Z,19.40
2022-09-21T15:47:45.206Z,19.40
2022-09-21T15:50:14.596Z,19.40
2022-09-21T15:52:44.363Z,19.30
2022-09-21T15:55:15.752Z,19.20
2022-09-21T15:57:46.050Z,19.10
2022-09-21T16:00:19.530Z,19.20
2022-09-21T16:03:05.718Z,19.10
2022-09-21T16:05:42.941Z,19.10
2022-09-21T16:08:28.884Z,19.10
2022-09-21T16:11:14.338Z,19.10
2022-09-21T16:14:01.930Z,19.00
2022-09-21T16:16:30.436Z,19.00
2022-09-21T16:19:00.693Z,18.80
2022-09-21T16:21:32.384Z,18.80
2022-09-21T16:24:10.117Z,18.80
2022-09-21T16:26:39.423Z,18.70
2022-09-21T16:29:19.710Z,18.70
2022-09-21T16:31:50.415Z,18.70
2022-09-21T16:34:23.456Z,18.70
2022-09-21T16:36:53.000Z,18.50
2022-09-21T16:39:22.786Z,18.50
2022-09-21T16:41:53.144Z,18.70
2022-09-21T16:44:25.655Z,18.70
2022-09-21T16:46:55.809Z,18.70
2022-09-21T16:49:30.222Z,18.70
2022-09-21T16:51:59.430Z,18.70
2022-09-21T16:54:27.847Z,18.70
2022-09-21T16:56:58.149Z,18.60
2022-09-21T16:59:28.459Z,18.80
2022-09-21T17:01:57.890Z,18.80
2022-09-21T17:04:27.069Z,18.70
2022-09-21T17:06:56.121Z,18.60
2022-09-21T17:09:29.249Z,18.80
2022-09-21T17:12:00.302Z,18.80
2022-09-21T17:14:35.212Z,18.60
2022-09-21T17:17:06.071Z,18.50
2022-09-21T17:19:34.894Z,18.50
2022-09-21T17:22:03.871Z,18.60
2022-09-21T17:24:49.821Z,18.60
2022-09-21T17:27:19.115Z,18.50
2022-09-21T17:29:49.823Z,18.40
2022-09-21T17:32:20.527Z,18.50
2022-09-21T17:34:50.190Z,18.50
2022-09-21T17:37:18.669Z,18.50
2022-09-21T17:39:47.345Z,18.40
2022-09-21T17:42:19.096Z,18.40
2022-09-21T17:44:57.007Z,18.50
2022-09-21T17:47:28.210Z,18.60
2022-09-21T17:50:01.629Z,18.50
2022-09-21T17:52:47.482Z,18.60
2022-09-21T17:55:16.090Z,18.60
2022-09-21T17:57:59.583Z,18.60
2022-09-21T18:00:35.110Z,18.60
2022-09-21T18:03:04.833Z,18.60
2022-09-21T18:05:33.347Z,18.60
2022-09-21T18:08:01.924Z,18.70
2022-09-21T18:10:30.517Z,18.70
2022-09-21T18:13:15.049Z,18.70
2022-09-21T18:15:51.596Z,18.60
2022-09-21T18:18:20.765Z,18.60
2022-09-21T18:20:56.916Z,18.60
2022-09-21T18:23:31.931Z,18.70
2022-09-21T18:26:00.984Z,18.70
2022-09-21T18:28:37.576Z,18.80
2022-09-21T18:31:16.668Z,18.90
2022-09-21T18:33:50.210Z,19.00
2022-09-21T18:36:23.563Z,19.00
2022-09-21T18:38:57.510Z,19.00
2022-09-21T18:41:31.174Z,18.90
2022-09-21T18:44:05.195Z,18.90
2022-09-21T18:46:39.773Z,18.90
2022-09-21T18:49:14.161Z,18.80
2022-09-21T18:51:47.019Z,18.70
2022-09-21T18:54:18.980Z,18.80
2022-09-21T18:56:47.694Z,18.70
2022-09-21T18:59:16.747Z,18.60
2022-09-21T19:01:48.372Z,18.60
2022-09-21T19:04:19.425Z,18.80
2022-09-21T19:06:50.253Z,18.80
2022-09-21T19:09:22.745Z,18.80
2022-09-21T19:11:56.264Z,18.70
2022-09-21T19:14:27.886Z,18.60
2022-09-21T19:17:05.893Z,18.70
2022-09-21T19:19:38.572Z,18.80
2022-09-21T19:22:12.035Z,18.80
2022-09-21T19:24:44.199Z,18.90
2022-09-21T19:27:17.481Z,18.90
2022-09-21T19:29:51.396Z,18.90
2022-09-21T19:32:31.058Z,19.00
2022-09-21T19:35:01.073Z,19.00
2022-09-21T19:37:29.543Z,19.00
2022-09-21T19:39:58.065Z,18.90
2022-09-21T19:42:30.325Z,19.10
2022-09-21T19:45:05.502Z,19.20
2022-09-21T19:47:36.882Z,19.20
2022-09-21T19:50:12.972Z,19.10
2022-09-21T19:52:41.696Z,19.00
2022-09-21T19:55:31.868Z,19.00
2022-09-21T19:58:17.823Z,19.10
2022-09-21T20:00:46.736Z,19.10
2022-09-21T20:03:21.792Z,19.00
2022-09-21T20:05:54.975Z,18.90
2022-09-21T20:08:27.541Z,18.90
2022-09-21T20:11:11.438Z,18.90
2022-09-21T20:14:00.656Z,18.90
2022-09-21T20:16:32.355Z,18.80
2022-09-21T20:19:08.294Z,18.80
2022-09-21T20:21:38.680Z,18.90
2022-09-21T20:24:12.931Z,18.80
2022-09-21T20:26:41.503Z,19.10
2022-09-21T20:29:10.081Z,19.10
2022-09-21T20:31:38.576Z,19.00
2022-09-21T20:34:08.315Z,19.10
2022-09-21T20:36:36.632Z,19.10
2022-09-21T20:39:05.405Z,19.30
2022-09-21T20:41:34.019Z,19.30
2022-09-21T20:44:02.659Z,19.30
2022-09-21T20:46:31.490Z,19.30
2022-09-21T20:49:04.719Z,19.50
2022-09-21T20:51:34.537Z,19.30
2022-09-21T20:54:03.320Z,19.00
2022-09-21T20:56:32.125Z,19.10
2022-09-21T20:59:00.519Z,19.10
2022-09-21T21:01:28.960Z,19.10
2022-09-21T21:04:01.728Z,19.00
2022-09-21T21:06:31.280Z,19.00
2022-09-21T21:09:01.195Z,19.00
2022-09-21T21:11:29.561Z,19.00
2022-09-21T21:13:58.289Z,19.10
2022-09-21T21:16:26.658Z,19.10
2022-09-21T21:18:55.295Z,19.00
2022-09-21T21:21:24.680Z,19.00
2022-09-21T21:24:10.725Z,18.90
2022-09-21T21:27:03.407Z,18.90
2022-09-21T21:29:28.898Z,19.00
2022-09-21T21:31:57.299Z,19.00
2022-09-21T21:34:25.673Z,19.00
2022-09-21T21:36:54.178Z,18.90
2022-09-21T21:39:22.540Z,18.90
2022-09-21T21:41:52.363Z,18.70
2022-09-21T21:44:20.784Z,18.70
2022-09-21T21:46:50.961Z,18.60
2022-09-21T21:49:19.334Z,18.70
2022-09-21T21:51:49.341Z,18.70
2022-09-21T21:54:18.378Z,18.70
2022-09-21T21:56:46.849Z,18.70
2022-09-21T21:59:17.873Z,18.70
2022-09-21T22:01:46.930Z,18.80
2022-09-21T22:04:15.290Z,18.70
2022-09-21T22:06:43.797Z,18.70
2022-09-21T22:09:12.467Z,18.80
2022-09-21T22:11:40.835Z,18.80
2022-09-21T22:14:09.409Z,18.80
2022-09-21T22:16:39.374Z,18.80
2022-09-21T22:19:08.523Z,18.70
2022-09-21T22:21:40.333Z,18.80
2022-09-21T22:24:09.208Z,18.80
2022-09-21T22:26:39.145Z,18.80
2022-09-21T22:29:08.234Z,18.80
2022-09-21T22:31:38.120Z,18.80
2022-09-21T22:34:09.064Z,18.80
2022-09-21T22:36:38.292Z,18.80
2022-09-21T22:39:07.383Z,18.80
2022-09-21T22:41:36.577Z,18.80
2022-09-21T22:44:05.435Z,18.80
2022-09-21T22:46:34.020Z,18.90
2022-09-21T22:49:02.485Z,19.00
2022-09-21T22:51:32.330Z,19.10
2022-09-21T22:54:01.598Z,19.00
2022-09-21T22:56:30.860Z,18.90
2022-09-21T22:58:59.937Z,19.00
2022-09-21T23:01:29.705Z,19.00
2022-09-21T23:03:58.832Z,19.10
2022-09-21T23:06:28.635Z,19.20
2022-09-21T23:08:59.216Z,19.20
2022-09-21T23:11:28.300Z,19.30
2022-09-21T23:13:56.933Z,19.10
2022-09-21T23:16:25.615Z,19.10
2022-09-21T23:18:54.412Z,19.00
2022-09-21T23:21:23.836Z,19.10
2022-09-21T23:23:55.675Z,19.10
2022-09-21T23:26:26.218Z,19.10
2022-09-21T23:28:55.533Z,19.10
2022-09-21T23:31:24.366Z,19.10
2022-09-21T23:33:54.142Z,19.20
2022-09-21T23:36:23.452Z,19.10
2022-09-21T23:38:52.398Z,19.10
2022-09-21T23:41:21.599Z,19.00
2022-09-21T23:43:51.802Z,19.10
2022-09-21T23:46:21.319Z,19.20
2022-09-21T23:48:50.044Z,19.20
2022-09-21T23:51:19.021Z,19.20
2022-09-21T23:53:47.996Z,18.80
2022-09-21T23:56:17.549Z,18.40
2022-09-21T23:58:46.222Z,18.10
